Ali Cat — MZCL8 — position and weather

sailwx.info

Track history (hours):
 
Tides and Currents Weather Stations Pressure Air Temp Water Temp Dewpoint Dewpoint Depression Visibility Wind Speed Wind Dir Waves Ship Positions

Ali Cat

Operator: MRCC Clyde

Last reported at 2019-Apr-24 16:59 UTC. Time now 2019-Apr-25 10:07 UTC.
Position N 55°57' W 004°44'.

Length 19 m.

Type: Passenger vessel. MMSI: 235056506.

Date/timePositionNaut miles runAvg speedWind from/ knotsBaromVisibWave heightAir tempDewpointWater temp
2019-Apr-24 16:59N 55°57' W 004°44'0 0.0
2019-Apr-24 16:29N 55°57' W 004°44'0 0.0
2019-Apr-24 15:56N 55°57' W 004°44'1 2.7
2019-Apr-24 15:30N 55°57' W 004°45'4 7.1
2019-Apr-24 14:58N 55°57' W 004°52'0 0.2
2019-Apr-24 13:59N 55°57' W 004°53'1 1.9
2019-Apr-24 13:28N 55°58' W 004°51'1 1.8
2019-Apr-24 13:00N 55°57' W 004°52'1 1.5
2019-Apr-24 12:29N 55°58' W 004°51'2 1.8
2019-Apr-24 11:23N 55°57' W 004°55'3 0.9
2019-Apr-24 07:41N 55°58' W 004°49'210.5
2019-Apr-24 07:29N 55°57' W 004°53'1 1.8
2019-Apr-24 06:59N 55°58' W 004°51'1 1.4
2019-Apr-24 06:26N 55°57' W 004°52'5 4.4
2019-Apr-24 05:20N 55°57' W 004°44'2 0.2
2019-Apr-23 13:58N 55°58' W 004°47'3 1.3
2019-Apr-23 11:29N 55°57' W 004°53'2 3.7
2019-Apr-23 10:51N 55°58' W 004°49'2 6.3
2019-Apr-23 10:29N 55°57' W 004°53'1 1.1
2019-Apr-23 09:35N 55°58' W 004°51'110.3
2019-Apr-23 09:30N 55°57' W 004°53'2 2.0
2019-Apr-23 08:41N 55°58' W 004°50'2 9.9
2019-Apr-23 08:28N 55°57' W 004°53'1 0.9
2019-Apr-23 07:32N 55°57' W 004°52'110.2
2019-Apr-23 07:26N 55°57' W 004°54'3 4.8
2019-Apr-23 06:51N 55°58' W 004°49'1 4.0
2019-Apr-23 06:30N 55°57' W 004°51'0 0.0
2019-Apr-22 20:57N 55°58' W 004°51'2 4.4
2019-Apr-22 20:28N 55°57' W 004°54'0 0.1
2019-Apr-22 19:24N 55°57' W 004°54'2 2.0
2019-Apr-22 18:34N 55°58' W 004°52'110.4
2019-Apr-22 18:30N 55°57' W 004°53'1 0.5
2019-Apr-22 17:31N 55°57' W 004°52'110.8
2019-Apr-22 17:27N 55°57' W 004°53'1 1.7
2019-Apr-22 16:35N 55°58' W 004°51'110.8
2019-Apr-22 16:29N 55°57' W 004°53'1 1.9
2019-Apr-22 15:59N 55°58' W 004°51'1 2.5
2019-Apr-22 15:28N 55°57' W 004°53'0 0.3
2019-Apr-22 13:59N 55°57' W 004°54'0 0.2
2019-Apr-22 12:58N 55°57' W 004°53'2 1.3
2019-Apr-22 11:37N 55°58' W 004°51'310.3
2019-Apr-22 11:21N 55°57' W 004°55'3 3.4
2019-Apr-22 10:35N 55°58' W 004°51'110.5
2019-Apr-22 10:27N 55°57' W 004°53'3 4.4
2019-Apr-22 09:50N 55°58' W 004°49'2 6.4
2019-Apr-22 09:29N 55°57' W 004°53'1 1.2
2019-Apr-22 08:34N 55°58' W 004°51'110.8
2019-Apr-22 08:30N 55°57' W 004°52'0 0.2
2019-Apr-22 07:32N 55°57' W 004°52'110.7
2019-Apr-22 07:28N 55°57' W 004°53'1 1.3
2019-Apr-22 06:30N 55°58' W 004°51'0 0.0
2019-Apr-21 22:05N 55°58' W 004°51'111.5
2019-Apr-21 22:00N 55°57' W 004°52'2 2.8
2019-Apr-21 21:20N 55°58' W 004°49'2 6.3
2019-Apr-21 20:59N 55°57' W 004°53'1 0.8
2019-Apr-21 20:03N 55°58' W 004°52'111.1
2019-Apr-21 19:59N 55°57' W 004°53'1 2.5
2019-Apr-21 19:28N 55°58' W 004°51'1 2.8
2019-Apr-21 18:58N 55°57' W 004°53'2 3.8
2019-Apr-21 18:24N 55°58' W 004°49'3 5.6
2019-Apr-21 17:54N 55°57' W 004°54'2 4.5
2019-Apr-21 17:28N 55°58' W 004°51'2 3.1
2019-Apr-21 16:56N 55°57' W 004°54'3 4.8
2019-Apr-21 16:22N 55°58' W 004°49'3 6.3
2019-Apr-21 15:58N 55°57' W 004°53'2 3.1
2019-Apr-21 15:27N 55°58' W 004°51'1 2.9
2019-Apr-21 14:58N 55°57' W 004°53'1 2.5
2019-Apr-21 14:28N 55°58' W 004°51'1 2.4
2019-Apr-21 13:59N 55°57' W 004°53'1 0.8
2019-Apr-21 12:54N 55°57' W 004°54'2 3.9
2019-Apr-21 12:29N 55°58' W 004°51'1 1.9
2019-Apr-21 11:58N 55°57' W 004°53'1 1.4
2019-Apr-21 11:06N 55°58' W 004°51'110.6
2019-Apr-21 11:00N 55°57' W 004°53'2 1.8
2019-Apr-21 10:09N 55°58' W 004°50'210.6
2019-Apr-21 09:59N 55°57' W 004°53'2 3.5
2019-Apr-21 09:21N 55°58' W 004°49'4 7.7
2019-Apr-21 08:53N 55°57' W 004°55'3 6.6
2019-Apr-21 08:22N 55°58' W 004°49'3 6.3
2019-Apr-21 07:57N 55°57' W 004°53'2 0.2
2019-Apr-20 20:57N 55°58' W 004°50'2 5.0
2019-Apr-20 20:30N 55°57' W 004°54'2 1.8
2019-Apr-20 19:33N 55°58' W 004°51'111.1
2019-Apr-20 19:30N 55°57' W 004°52'1 0.9
2019-Apr-20 18:36N 55°58' W 004°51'210.6
2019-Apr-20 18:24N 55°57' W 004°54'0 0.2
2019-Apr-20 17:25N 55°57' W 004°54'1 1.6
2019-Apr-20 16:33N 55°58' W 004°52'110.5
2019-Apr-20 16:29N 55°57' W 004°53'1 1.2
2019-Apr-20 15:36N 55°58' W 004°51'210.3
2019-Apr-20 15:27N 55°57' W 004°54'3 0.7
2019-Apr-20 11:41N 55°58' W 004°49'210.5
2019-Apr-20 11:28N 55°57' W 004°53'2 2.8
2019-Apr-20 10:40N 55°58' W 004°49'210.5
2019-Apr-20 10:27N 55°57' W 004°53'3 4.4
2019-Apr-20 09:51N 55°58' W 004°49'3 6.6
2019-Apr-20 09:27N 55°57' W 004°53'2 2.7
2019-Apr-20 08:39N 55°58' W 004°50'210.7
2019-Apr-20 08:28N 55°57' W 004°53'2 3.1
2019-Apr-20 07:41N 55°58' W 004°49'211.0
2019-Apr-20 07:29N 55°57' W 004°53'1 2.1
2019-Apr-20 07:00N 55°58' W 004°51'1 1.9
2019-Apr-20 06:27N 55°57' W 004°52'2 0.2
2019-Apr-19 21:00N 55°58' W 004°49'3 4.9
2019-Apr-19 20:28N 55°57' W 004°54'2 2.3
2019-Apr-19 19:37N 55°58' W 004°50'110.8
2019-Apr-19 19:30N 55°57' W 004°52'1 1.4
2019-Apr-19 18:37N 55°58' W 004°50'210.7
2019-Apr-19 18:25N 55°57' W 004°54'3 4.2
2019-Apr-19 17:43N 55°58' W 004°49'210.2
2019-Apr-19 17:30N 55°57' W 004°53'2 2.1
2019-Apr-19 16:40N 55°58' W 004°50'210.1
2019-Apr-19 16:26N 55°57' W 004°54'0 0.2
2019-Apr-19 15:26N 55°57' W 004°54'3 3.2
2019-Apr-19 14:32N 55°58' W 004°49'0 0.5
2019-Apr-19 14:30N 55°58' W 004°49'4 5.8
2019-Apr-19 13:52N 55°57' W 004°55'1 1.2
2019-Apr-19 12:58N 55°57' W 004°53'1 0.8
2019-Apr-19 11:33N 55°57' W 004°52'110.1
2019-Apr-19 11:26N 55°57' W 004°54'2 2.9
2019-Apr-19 10:40N 55°58' W 004°50'210.2
2019-Apr-19 10:29N 55°57' W 004°53'2 2.5
2019-Apr-19 09:41N 55°58' W 004°49'210.2
2019-Apr-19 09:31N 55°57' W 004°52'1 1.7
2019-Apr-19 08:59N 55°58' W 004°51'1 2.1
2019-Apr-19 08:30N 55°57' W 004°53'2 2.4
2019-Apr-19 07:40N 55°58' W 004°49'210.7
2019-Apr-19 07:29N 55°57' W 004°53'2 1.9
2019-Apr-19 06:34N 55°58' W 004°50'110.8
2019-Apr-19 06:30N 55°58' W 004°51'0 0.0
2019-Apr-18 20:57N 55°58' W 004°50'2 5.3
2019-Apr-18 20:30N 55°57' W 004°55'2 2.4
2019-Apr-18 19:35N 55°58' W 004°51'110.9
2019-Apr-18 19:30N 55°57' W 004°52'0 1.0
2019-Apr-18 19:00N 55°58' W 004°52'1 2.5
2019-Apr-18 18:26N 55°57' W 004°54'2 3.7
2019-Apr-18 18:00N 55°58' W 004°51'1 2.2
2019-Apr-18 17:28N 55°57' W 004°53'2 2.4
2019-Apr-18 16:40N 55°58' W 004°50'2 9.9
2019-Apr-18 16:25N 55°57' W 004°54'1 1.2
2019-Apr-18 15:31N 55°57' W 004°52'010.7
2019-Apr-18 15:30N 55°57' W 004°52'1 0.4
2019-Apr-18 11:40N 55°58' W 004°50'2 9.8
2019-Apr-18 11:29N 55°57' W 004°53'2 1.9
2019-Apr-18 10:39N 55°58' W 004°50'110.0
2019-Apr-18 10:30N 55°57' W 004°53'1 1.5
2019-Apr-18 09:38N 55°58' W 004°50'110.1
2019-Apr-18 09:30N 55°57' W 004°53'2 2.1
2019-Apr-18 08:40N 55°58' W 004°50'210.3
2019-Apr-18 08:29N 55°57' W 004°53'1 1.7
2019-Apr-18 08:01N 55°58' W 004°52'1 1.0
2019-Apr-18 07:31N 55°57' W 004°52'1 0.9
2019-Apr-18 06:31N 55°58' W 004°51'110.4
2019-Apr-18 06:27N 55°57' W 004°52'1 1.0
2019-Apr-18 05:55N 55°58' W 004°51'1 0.1
2019-Apr-17 20:57N 55°58' W 004°50'2 4.8
2019-Apr-17 20:28N 55°57' W 004°54'2 2.8
2019-Apr-17 19:43N 55°58' W 004°51'210.9
2019-Apr-17 19:30N 55°57' W 004°54'3 4.4
2019-Apr-17 18:55N 55°58' W 004°50'2 3.9
2019-Apr-17 18:29N 55°57' W 004°53'2 2.0
2019-Apr-17 17:38N 55°58' W 004°50'210.9
2019-Apr-17 17:28N 55°57' W 004°53'1 0.9
2019-Apr-17 16:33N 55°57' W 004°52'010.4
2019-Apr-17 16:30N 55°57' W 004°52'0 0.5
2019-Apr-17 15:33N 55°57' W 004°52'110.3
2019-Apr-17 15:29N 55°57' W 004°53'2 1.7
2019-Apr-17 14:12N 55°58' W 004°49'2 9.8
2019-Apr-17 13:59N 55°57' W 004°53'0 0.2
2019-Apr-17 12:58N 55°57' W 004°53'2 3.4
2019-Apr-17 12:28N 55°58' W 004°50'1 0.7
2019-Apr-17 11:36N 55°57' W 004°51'2 9.6
2019-Apr-17 11:26N 55°57' W 004°54'3 3.7
2019-Apr-17 10:42N 55°58' W 004°49'210.0
2019-Apr-17 10:29N 55°57' W 004°53'2 2.9
2019-Apr-17 09:43N 55°58' W 004°49'210.4
2019-Apr-17 09:30N 55°57' W 004°53'1 1.4
2019-Apr-17 08:37N 55°58' W 004°51'110.3
2019-Apr-17 08:29N 55°57' W 004°53'1 2.3
2019-Apr-17 07:59N 55°58' W 004°51'1 1.9
2019-Apr-17 07:30N 55°57' W 004°53'1 1.6
2019-Apr-17 06:34N 55°58' W 004°50'110.2
2019-Apr-17 06:30N 55°57' W 004°51'1 0.1
2019-Apr-16 20:57N 55°58' W 004°50'0 0.2
2019-Apr-16 19:35N 55°58' W 004°51'110.8
2019-Apr-16 19:30N 55°57' W 004°52'1 0.8
2019-Apr-16 18:34N 55°58' W 004°51'110.3
2019-Apr-16 18:29N 55°57' W 004°53'2 2.0
2019-Apr-16 17:40N 55°58' W 004°50'210.5
2019-Apr-16 17:30N 55°57' W 004°53'2 2.1
2019-Apr-16 16:39N 55°58' W 004°50'210.2
2019-Apr-16 16:30N 55°57' W 004°53'0 0.1
2019-Apr-16 15:29N 55°57' W 004°53'1 0.2
2019-Apr-16 11:34N 55°57' W 004°51'110.5
2019-Apr-16 11:30N 55°57' W 004°52'1 0.9
2019-Apr-16 10:35N 55°57' W 004°51'110.3
2019-Apr-16 10:29N 55°57' W 004°53'2 2.6
2019-Apr-16 09:41N 55°58' W 004°49'210.5
2019-Apr-16 09:29N 55°57' W 004°53'1 1.0
2019-Apr-16 08:35N 55°57' W 004°51'110.3
2019-Apr-16 08:28N 55°57' W 004°53'1 1.1
2019-Apr-16 07:33N 55°57' W 004°51'110.7
2019-Apr-16 07:28N 55°57' W 004°53'2 1.8
2019-Apr-16 06:33N 55°58' W 004°50'110.7
2019-Apr-16 06:27N 55°57' W 004°52'0 0.0
2019-Apr-15 19:33N 55°57' W 004°51'110.3
2019-Apr-15 19:30N 55°57' W 004°52'1 1.6
2019-Apr-15 18:38N 55°58' W 004°50'210.8
2019-Apr-15 18:30N 55°57' W 004°52'1 1.1
2019-Apr-15 17:36N 55°58' W 004°51'110.9
2019-Apr-15 17:29N 55°57' W 004°53'1 0.1
2019-Apr-15 06:20N 55°57' W 004°54'  
Track history (hours):
 
Tides and Currents Weather Stations Pressure Air Temp Water Temp Dewpoint Dewpoint Depression Visibility Wind Speed Wind Dir Waves Ship Positions

Ali Cat

Operator: MRCC Clyde

Last reported at 2019-Apr-24 16:59 UTC. Time now 2019-Apr-25 10:07 UTC.
Position N 55°57' W 004°44'.

Length 19 m.

Type: Passenger vessel. MMSI: 235056506.

Date/timePositionNaut miles runAvg speedWind from/ knotsBaromVisibWave heightAir tempDewpointWater temp
2019-Apr-24 16:59N 55°57' W 004°44'0 0.0
2019-Apr-24 16:29N 55°57' W 004°44'0 0.0
2019-Apr-24 15:56N 55°57' W 004°44'1 2.7
2019-Apr-24 15:30N 55°57' W 004°45'4 7.1
2019-Apr-24 14:58N 55°57' W 004°52'0 0.2
2019-Apr-24 13:59N 55°57' W 004°53'1 1.9
2019-Apr-24 13:28N 55°58' W 004°51'1 1.8
2019-Apr-24 13:00N 55°57' W 004°52'1 1.5
2019-Apr-24 12:29N 55°58' W 004°51'2 1.8
2019-Apr-24 11:23N 55°57' W 004°55'3 0.9
2019-Apr-24 07:41N 55°58' W 004°49'210.5
2019-Apr-24 07:29N 55°57' W 004°53'1 1.8
2019-Apr-24 06:59N 55°58' W 004°51'1 1.4
2019-Apr-24 06:26N 55°57' W 004°52'5 4.4
2019-Apr-24 05:20N 55°57' W 004°44'2 0.2
2019-Apr-23 13:58N 55°58' W 004°47'3 1.3
2019-Apr-23 11:29N 55°57' W 004°53'2 3.7
2019-Apr-23 10:51N 55°58' W 004°49'2 6.3
2019-Apr-23 10:29N 55°57' W 004°53'1 1.1
2019-Apr-23 09:35N 55°58' W 004°51'110.3
2019-Apr-23 09:30N 55°57' W 004°53'2 2.0
2019-Apr-23 08:41N 55°58' W 004°50'2 9.9
2019-Apr-23 08:28N 55°57' W 004°53'1 0.9
2019-Apr-23 07:32N 55°57' W 004°52'110.2
2019-Apr-23 07:26N 55°57' W 004°54'3 4.8
2019-Apr-23 06:51N 55°58' W 004°49'1 4.0
2019-Apr-23 06:30N 55°57' W 004°51'0 0.0
2019-Apr-22 20:57N 55°58' W 004°51'2 4.4
2019-Apr-22 20:28N 55°57' W 004°54'0 0.1
2019-Apr-22 19:24N 55°57' W 004°54'2 2.0
2019-Apr-22 18:34N 55°58' W 004°52'110.4
2019-Apr-22 18:30N 55°57' W 004°53'1 0.5
2019-Apr-22 17:31N 55°57' W 004°52'110.8
2019-Apr-22 17:27N 55°57' W 004°53'1 1.7
2019-Apr-22 16:35N 55°58' W 004°51'110.8
2019-Apr-22 16:29N 55°57' W 004°53'1 1.9
2019-Apr-22 15:59N 55°58' W 004°51'1 2.5
2019-Apr-22 15:28N 55°57' W 004°53'0 0.3
2019-Apr-22 13:59N 55°57' W 004°54'0 0.2
2019-Apr-22 12:58N 55°57' W 004°53'2 1.3
2019-Apr-22 11:37N 55°58' W 004°51'310.3
2019-Apr-22 11:21N 55°57' W 004°55'3 3.4
2019-Apr-22 10:35N 55°58' W 004°51'110.5
2019-Apr-22 10:27N 55°57' W 004°53'3 4.4
2019-Apr-22 09:50N 55°58' W 004°49'2 6.4
2019-Apr-22 09:29N 55°57' W 004°53'1 1.2
2019-Apr-22 08:34N 55°58' W 004°51'110.8
2019-Apr-22 08:30N 55°57' W 004°52'0 0.2
2019-Apr-22 07:32N 55°57' W 004°52'110.7
2019-Apr-22 07:28N 55°57' W 004°53'1 1.3
2019-Apr-22 06:30N 55°58' W 004°51'0 0.0
2019-Apr-21 22:05N 55°58' W 004°51'111.5
2019-Apr-21 22:00N 55°57' W 004°52'2 2.8
2019-Apr-21 21:20N 55°58' W 004°49'2 6.3
2019-Apr-21 20:59N 55°57' W 004°53'1 0.8
2019-Apr-21 20:03N 55°58' W 004°52'111.1
2019-Apr-21 19:59N 55°57' W 004°53'1 2.5
2019-Apr-21 19:28N 55°58' W 004°51'1 2.8
2019-Apr-21 18:58N 55°57' W 004°53'2 3.8
2019-Apr-21 18:24N 55°58' W 004°49'3 5.6
2019-Apr-21 17:54N 55°57' W 004°54'2 4.5
2019-Apr-21 17:28N 55°58' W 004°51'2 3.1
2019-Apr-21 16:56N 55°57' W 004°54'3 4.8
2019-Apr-21 16:22N 55°58' W 004°49'3 6.3
2019-Apr-21 15:58N 55°57' W 004°53'2 3.1
2019-Apr-21 15:27N 55°58' W 004°51'1 2.9
2019-Apr-21 14:58N 55°57' W 004°53'1 2.5
2019-Apr-21 14:28N 55°58' W 004°51'1 2.4
2019-Apr-21 13:59N 55°57' W 004°53'1 0.8
2019-Apr-21 12:54N 55°57' W 004°54'2 3.9
2019-Apr-21 12:29N 55°58' W 004°51'1 1.9
2019-Apr-21 11:58N 55°57' W 004°53'1 1.4
2019-Apr-21 11:06N 55°58' W 004°51'110.6
2019-Apr-21 11:00N 55°57' W 004°53'2 1.8
2019-Apr-21 10:09N 55°58' W 004°50'210.6
2019-Apr-21 09:59N 55°57' W 004°53'2 3.5
2019-Apr-21 09:21N 55°58' W 004°49'4 7.7
2019-Apr-21 08:53N 55°57' W 004°55'3 6.6
2019-Apr-21 08:22N 55°58' W 004°49'3 6.3
2019-Apr-21 07:57N 55°57' W 004°53'2 0.2
2019-Apr-20 20:57N 55°58' W 004°50'2 5.0
2019-Apr-20 20:30N 55°57' W 004°54'2 1.8
2019-Apr-20 19:33N 55°58' W 004°51'111.1
2019-Apr-20 19:30N 55°57' W 004°52'1 0.9
2019-Apr-20 18:36N 55°58' W 004°51'210.6
2019-Apr-20 18:24N 55°57' W 004°54'0 0.2
2019-Apr-20 17:25N 55°57' W 004°54'1 1.6
2019-Apr-20 16:33N 55°58' W 004°52'110.5
2019-Apr-20 16:29N 55°57' W 004°53'1 1.2
2019-Apr-20 15:36N 55°58' W 004°51'210.3
2019-Apr-20 15:27N 55°57' W 004°54'3 0.7
2019-Apr-20 11:41N 55°58' W 004°49'210.5
2019-Apr-20 11:28N 55°57' W 004°53'2 2.8
2019-Apr-20 10:40N 55°58' W 004°49'210.5
2019-Apr-20 10:27N 55°57' W 004°53'3 4.4
2019-Apr-20 09:51N 55°58' W 004°49'3 6.6
2019-Apr-20 09:27N 55°57' W 004°53'2 2.7
2019-Apr-20 08:39N 55°58' W 004°50'210.7
2019-Apr-20 08:28N 55°57' W 004°53'2 3.1
2019-Apr-20 07:41N 55°58' W 004°49'211.0
2019-Apr-20 07:29N 55°57' W 004°53'1 2.1
2019-Apr-20 07:00N 55°58' W 004°51'1 1.9
2019-Apr-20 06:27N 55°57' W 004°52'2 0.2
2019-Apr-19 21:00N 55°58' W 004°49'3 4.9
2019-Apr-19 20:28N 55°57' W 004°54'2 2.3
2019-Apr-19 19:37N 55°58' W 004°50'110.8
2019-Apr-19 19:30N 55°57' W 004°52'1 1.4
2019-Apr-19 18:37N 55°58' W 004°50'210.7
2019-Apr-19 18:25N 55°57' W 004°54'3 4.2
2019-Apr-19 17:43N 55°58' W 004°49'210.2
2019-Apr-19 17:30N 55°57' W 004°53'2 2.1
2019-Apr-19 16:40N 55°58' W 004°50'210.1
2019-Apr-19 16:26N 55°57' W 004°54'0 0.2
2019-Apr-19 15:26N 55°57' W 004°54'3 3.2
2019-Apr-19 14:32N 55°58' W 004°49'0 0.5
2019-Apr-19 14:30N 55°58' W 004°49'4 5.8
2019-Apr-19 13:52N 55°57' W 004°55'1 1.2
2019-Apr-19 12:58N 55°57' W 004°53'1 0.8
2019-Apr-19 11:33N 55°57' W 004°52'110.1
2019-Apr-19 11:26N 55°57' W 004°54'2 2.9
2019-Apr-19 10:40N 55°58' W 004°50'210.2
2019-Apr-19 10:29N 55°57' W 004°53'2 2.5
2019-Apr-19 09:41N 55°58' W 004°49'210.2
2019-Apr-19 09:31N 55°57' W 004°52'1 1.7
2019-Apr-19 08:59N 55°58' W 004°51'1 2.1
2019-Apr-19 08:30N 55°57' W 004°53'2 2.4
2019-Apr-19 07:40N 55°58' W 004°49'210.7
2019-Apr-19 07:29N 55°57' W 004°53'2 1.9
2019-Apr-19 06:34N 55°58' W 004°50'110.8
2019-Apr-19 06:30N 55°58' W 004°51'0 0.0
2019-Apr-18 20:57N 55°58' W 004°50'2 5.3
2019-Apr-18 20:30N 55°57' W 004°55'2 2.4
2019-Apr-18 19:35N 55°58' W 004°51'110.9
2019-Apr-18 19:30N 55°57' W 004°52'0 1.0
2019-Apr-18 19:00N 55°58' W 004°52'1 2.5
2019-Apr-18 18:26N 55°57' W 004°54'2 3.7
2019-Apr-18 18:00N 55°58' W 004°51'1 2.2
2019-Apr-18 17:28N 55°57' W 004°53'2 2.4
2019-Apr-18 16:40N 55°58' W 004°50'2 9.9
2019-Apr-18 16:25N 55°57' W 004°54'1 1.2
2019-Apr-18 15:31N 55°57' W 004°52'010.7
2019-Apr-18 15:30N 55°57' W 004°52'1 0.4
2019-Apr-18 11:40N 55°58' W 004°50'2 9.8
2019-Apr-18 11:29N 55°57' W 004°53'2 1.9
2019-Apr-18 10:39N 55°58' W 004°50'110.0
2019-Apr-18 10:30N 55°57' W 004°53'1 1.5
2019-Apr-18 09:38N 55°58' W 004°50'110.1
2019-Apr-18 09:30N 55°57' W 004°53'2 2.1
2019-Apr-18 08:40N 55°58' W 004°50'210.3
2019-Apr-18 08:29N 55°57' W 004°53'1 1.7
2019-Apr-18 08:01N 55°58' W 004°52'1 1.0
2019-Apr-18 07:31N 55°57' W 004°52'1 0.9
2019-Apr-18 06:31N 55°58' W 004°51'110.4
2019-Apr-18 06:27N 55°57' W 004°52'1 1.0
2019-Apr-18 05:55N 55°58' W 004°51'1 0.1
2019-Apr-17 20:57N 55°58' W 004°50'2 4.8
2019-Apr-17 20:28N 55°57' W 004°54'2 2.8
2019-Apr-17 19:43N 55°58' W 004°51'210.9
2019-Apr-17 19:30N 55°57' W 004°54'3 4.4
2019-Apr-17 18:55N 55°58' W 004°50'2 3.9
2019-Apr-17 18:29N 55°57' W 004°53'2 2.0
2019-Apr-17 17:38N 55°58' W 004°50'210.9
2019-Apr-17 17:28N 55°57' W 004°53'1 0.9
2019-Apr-17 16:33N 55°57' W 004°52'010.4
2019-Apr-17 16:30N 55°57' W 004°52'0 0.5
2019-Apr-17 15:33N 55°57' W 004°52'110.3
2019-Apr-17 15:29N 55°57' W 004°53'2 1.7
2019-Apr-17 14:12N 55°58' W 004°49'2 9.8
2019-Apr-17 13:59N 55°57' W 004°53'0 0.2
2019-Apr-17 12:58N 55°57' W 004°53'2 3.4
2019-Apr-17 12:28N 55°58' W 004°50'1 0.7
2019-Apr-17 11:36N 55°57' W 004°51'2 9.6
2019-Apr-17 11:26N 55°57' W 004°54'3 3.7
2019-Apr-17 10:42N 55°58' W 004°49'210.0
2019-Apr-17 10:29N 55°57' W 004°53'2 2.9
2019-Apr-17 09:43N 55°58' W 004°49'210.4
2019-Apr-17 09:30N 55°57' W 004°53'1 1.4
2019-Apr-17 08:37N 55°58' W 004°51'110.3
2019-Apr-17 08:29N 55°57' W 004°53'1 2.3
2019-Apr-17 07:59N 55°58' W 004°51'1 1.9
2019-Apr-17 07:30N 55°57' W 004°53'1 1.6
2019-Apr-17 06:34N 55°58' W 004°50'110.2
2019-Apr-17 06:30N 55°57' W 004°51'1 0.1
2019-Apr-16 20:57N 55°58' W 004°50'0 0.2
2019-Apr-16 19:35N 55°58' W 004°51'110.8
2019-Apr-16 19:30N 55°57' W 004°52'1 0.8
2019-Apr-16 18:34N 55°58' W 004°51'110.3
2019-Apr-16 18:29N 55°57' W 004°53'2 2.0
2019-Apr-16 17:40N 55°58' W 004°50'210.5
2019-Apr-16 17:30N 55°57' W 004°53'2 2.1
2019-Apr-16 16:39N 55°58' W 004°50'210.2
2019-Apr-16 16:30N 55°57' W 004°53'0 0.1
2019-Apr-16 15:29N 55°57' W 004°53'1 0.2
2019-Apr-16 11:34N 55°57' W 004°51'110.5
2019-Apr-16 11:30N 55°57' W 004°52'1 0.9
2019-Apr-16 10:35N 55°57' W 004°51'110.3
2019-Apr-16 10:29N 55°57' W 004°53'2 2.6
2019-Apr-16 09:41N 55°58' W 004°49'210.5
2019-Apr-16 09:29N 55°57' W 004°53'1 1.0
2019-Apr-16 08:35N 55°57' W 004°51'110.3
2019-Apr-16 08:28N 55°57' W 004°53'1 1.1
2019-Apr-16 07:33N 55°57' W 004°51'110.7
2019-Apr-16 07:28N 55°57' W 004°53'2 1.8
2019-Apr-16 06:33N 55°58' W 004°50'110.7
2019-Apr-16 06:27N 55°57' W 004°52'0 0.0
2019-Apr-15 19:33N 55°57' W 004°51'110.3
2019-Apr-15 19:30N 55°57' W 004°52'1 1.6
2019-Apr-15 18:38N 55°58' W 004°50'210.8
2019-Apr-15 18:30N 55°57' W 004°52'1 1.1
2019-Apr-15 17:36N 55°58' W 004°51'110.9
2019-Apr-15 17:29N 55°57' W 004°53'1 0.1
2019-Apr-15 06:20N 55°57' W 004°54'  

Dump ship's entire track history